sensor_id;sensor_type;location;lat;lon;timestamp;temperature;humidity
41904;DHT22;27586;51.124;4.182;2024-01-30T00:01:58;9.80;99.90
41904;DHT22;27586;51.124;4.182;2024-01-30T00:04:24;9.70;99.90
41904;DHT22;27586;51.124;4.182;2024-01-30T00:06:51;9.70;99.90
41904;DHT22;27586;51.124;4.182;2024-01-30T00:09:24;9.80;99.90
41904;DHT22;27586;51.124;4.182;2024-01-30T00:11:50;9.80;99.90
41904;DHT22;27586;51.124;4.182;2024-01-30T00:14:16;9.80;99.90
41904;DHT22;27586;51.124;4.182;2024-01-30T00:16:42;9.80;99.90
41904;DHT22;27586;51.124;4.182;2024-01-30T00:19:07;9.80;99.90
41904;DHT22;27586;51.124;4.182;2024-01-30T00:21:34;9.90;99.90
41904;DHT22;27586;51.124;4.182;2024-01-30T00:23:59;9.90;99.90
41904;DHT22;27586;51.124;4.182;2024-01-30T00:26:25;9.90;99.90
41904;DHT22;27586;51.124;4.182;2024-01-30T00:28:51;10.00;99.90
41904;DHT22;27586;51.124;4.182;2024-01-30T00:31:16;10.00;99.90
41904;DHT22;27586;51.124;4.182;2024-01-30T00:33:42;10.00;99.90
41904;DHT22;27586;51.124;4.182;2024-01-30T00:36:12;9.90;99.90
41904;DHT22;27586;51.124;4.182;2024-01-30T00:38:38;9.90;99.90
41904;DHT22;27586;51.124;4.182;2024-01-30T00:41:08;10.00;99.90
41904;DHT22;27586;51.124;4.182;2024-01-30T00:43:35;9.90;99.90
41904;DHT22;27586;51.124;4.182;2024-01-30T00:46:04;9.80;99.90
41904;DHT22;27586;51.124;4.182;2024-01-30T00:48:30;9.70;99.90
41904;DHT22;27586;51.124;4.182;2024-01-30T00:50:56;9.70;99.90
41904;DHT22;27586;51.124;4.182;2024-01-30T00:53:22;9.80;99.90
41904;DHT22;27586;51.124;4.182;2024-01-30T00:55:47;9.80;99.90
41904;DHT22;27586;51.124;4.182;2024-01-30T00:58:13;9.80;99.90
41904;DHT22;27586;51.124;4.182;2024-01-30T01:00:39;9.70;99.90
41904;DHT22;27586;51.124;4.182;2024-01-30T01:03:05;9.70;99.90
41904;DHT22;27586;51.124;4.182;2024-01-30T01:05:31;9.80;99.90
41904;DHT22;27586;51.124;4.182;2024-01-30T01:07:56;9.70;99.90
41904;DHT22;27586;51.124;4.182;2024-01-30T01:10:23;9.70;99.90
41904;DHT22;27586;51.124;4.182;2024-01-30T01:12:48;9.70;99.90
41904;DHT22;27586;51.124;4.182;2024-01-30T01:15:15;9.80;99.90
41904;DHT22;27586;51.124;4.182;2024-01-30T01:17:40;9.80;99.90
41904;DHT22;27586;51.124;4.182;2024-01-30T01:20:07;9.80;99.90
41904;DHT22;27586;51.124;4.182;2024-01-30T01:22:33;9.70;99.90
41904;DHT22;27586;51.124;4.182;2024-01-30T01:24:59;9.60;99.90
41904;DHT22;27586;51.124;4.182;2024-01-30T01:27:25;9.60;99.90
41904;DHT22;27586;51.124;4.182;2024-01-30T01:29:52;9.60;99.90
41904;DHT22;27586;51.124;4.182;2024-01-30T01:32:18;9.60;99.90
41904;DHT22;27586;51.124;4.182;2024-01-30T01:34:44;9.60;99.90
41904;DHT22;27586;51.124;4.182;2024-01-30T01:37:10;9.50;99.90
41904;DHT22;27586;51.124;4.182;2024-01-30T01:39:35;9.60;99.90
41904;DHT22;27586;51.124;4.182;2024-01-30T01:42:01;9.50;99.90
41904;DHT22;27586;51.124;4.182;2024-01-30T01:44:27;9.50;99.90
41904;DHT22;27586;51.124;4.182;2024-01-30T01:46:54;9.50;99.90
41904;DHT22;27586;51.124;4.182;2024-01-30T01:49:25;9.40;99.90
41904;DHT22;27586;51.124;4.182;2024-01-30T01:51:55;9.40;99.90
41904;DHT22;27586;51.124;4.182;2024-01-30T01:54:22;9.50;99.90
41904;DHT22;27586;51.124;4.182;2024-01-30T01:56:49;9.50;99.90
41904;DHT22;27586;51.124;4.182;2024-01-30T01:59:15;9.50;99.90
41904;DHT22;27586;51.124;4.182;2024-01-30T02:01:41;9.40;99.90
41904;DHT22;27586;51.124;4.182;2024-01-30T02:04:08;9.30;99.90
41904;DHT22;27586;51.124;4.182;2024-01-30T02:06:37;9.30;99.90
41904;DHT22;27586;51.124;4.182;2024-01-30T02:09:04;9.30;99.90
41904;DHT22;27586;51.124;4.182;2024-01-30T02:11:30;9.30;99.90
41904;DHT22;27586;51.124;4.182;2024-01-30T02:13:56;9.30;99.90
41904;DHT22;27586;51.124;4.182;2024-01-30T02:16:22;9.30;99.90
41904;DHT22;27586;51.124;4.182;2024-01-30T02:18:48;9.40;99.90
41904;DHT22;27586;51.124;4.182;2024-01-30T02:21:17;9.30;99.90
41904;DHT22;27586;51.124;4.182;2024-01-30T02:23:44;9.30;99.90
41904;DHT22;27586;51.124;4.182;2024-01-30T02:26:10;9.40;99.90
41904;DHT22;27586;51.124;4.182;2024-01-30T02:28:37;9.40;99.90
41904;DHT22;27586;51.124;4.182;2024-01-30T02:31:03;9.50;99.90
41904;DHT22;27586;51.124;4.182;2024-01-30T02:33:29;9.50;99.90
41904;DHT22;27586;51.124;4.182;2024-01-30T02:35:54;9.60;99.90
41904;DHT22;27586;51.124;4.182;2024-01-30T02:38:20;9.60;99.90
41904;DHT22;27586;51.124;4.182;2024-01-30T02:40:49;9.60;99.90
41904;DHT22;27586;51.124;4.182;2024-01-30T02:43:17;9.60;99.90
41904;DHT22;27586;51.124;4.182;2024-01-30T02:45:43;9.60;99.90
41904;DHT22;27586;51.124;4.182;2024-01-30T02:48:09;9.70;99.90
41904;DHT22;27586;51.124;4.182;2024-01-30T02:50:34;9.70;99.90
41904;DHT22;27586;51.124;4.182;2024-01-30T02:53:00;9.70;99.90
41904;DHT22;27586;51.124;4.182;2024-01-30T02:55:26;9.70;99.90
41904;DHT22;27586;51.124;4.182;2024-01-30T02:57:51;9.70;99.90
41904;DHT22;27586;51.124;4.182;2024-01-30T03:00:19;9.80;99.90
41904;DHT22;27586;51.124;4.182;2024-01-30T03:02:45;9.80;99.90
41904;DHT22;27586;51.124;4.182;2024-01-30T03:05:10;9.80;99.90
41904;DHT22;27586;51.124;4.182;2024-01-30T03:07:36;9.90;99.90
41904;DHT22;27586;51.124;4.182;2024-01-30T03:10:02;10.00;99.90
41904;DHT22;27586;51.124;4.182;2024-01-30T03:12:31;10.00;99.90
41904;DHT22;27586;51.124;4.182;2024-01-30T03:14:56;10.10;99.90
41904;DHT22;27586;51.124;4.182;2024-01-30T03:17:22;10.00;99.90
41904;DHT22;27586;51.124;4.182;2024-01-30T03:19:47;10.00;99.90
41904;DHT22;27586;51.124;4.182;2024-01-30T03:22:13;10.00;99.90
41904;DHT22;27586;51.124;4.182;2024-01-30T03:24:39;10.10;99.90
41904;DHT22;27586;51.124;4.182;2024-01-30T03:27:04;10.10;99.90
41904;DHT22;27586;51.124;4.182;2024-01-30T03:29:30;10.00;99.90
41904;DHT22;27586;51.124;4.182;2024-01-30T03:31:55;10.00;99.90
41904;DHT22;27586;51.124;4.182;2024-01-30T03:34:21;10.00;99.90
41904;DHT22;27586;51.124;4.182;2024-01-30T03:36:47;10.00;99.90
41904;DHT22;27586;51.124;4.182;2024-01-30T03:39:12;10.00;99.90
41904;DHT22;27586;51.124;4.182;2024-01-30T03:41:38;10.10;99.90
41904;DHT22;27586;51.124;4.182;2024-01-30T03:44:07;10.10;99.90
41904;DHT22;27586;51.124;4.182;2024-01-30T03:46:32;10.10;99.90
41904;DHT22;27586;51.124;4.182;2024-01-30T03:48:58;10.10;99.90
41904;DHT22;27586;51.124;4.182;2024-01-30T03:51:23;10.10;99.90
41904;DHT22;27586;51.124;4.182;2024-01-30T03:53:49;10.00;99.90
41904;DHT22;27586;51.124;4.182;2024-01-30T03:56:15;10.00;99.90
41904;DHT22;27586;51.124;4.182;2024-01-30T03:58:41;10.00;99.90
41904;DHT22;27586;51.124;4.182;2024-01-30T04:01:07;10.00;99.90
41904;DHT22;27586;51.124;4.182;2024-01-30T04:03:32;10.00;99.90
41904;DHT22;27586;51.124;4.182;2024-01-30T04:05:58;10.00;99.90
41904;DHT22;27586;51.124;4.182;2024-01-30T04:08:24;10.10;99.90
41904;DHT22;27586;51.124;4.182;2024-01-30T04:10:49;10.10;99.90
41904;DHT22;27586;51.124;4.182;2024-01-30T04:13:15;10.00;99.90
41904;DHT22;27586;51.124;4.182;2024-01-30T04:15:41;10.00;99.90
41904;DHT22;27586;51.124;4.182;2024-01-30T04:18:06;10.10;99.90
41904;DHT22;27586;51.124;4.182;2024-01-30T04:20:32;10.00;99.90
41904;DHT22;27586;51.124;4.182;2024-01-30T04:22:58;10.00;99.90
41904;DHT22;27586;51.124;4.182;2024-01-30T04:25:23;9.90;99.90
41904;DHT22;27586;51.124;4.182;2024-01-30T04:27:49;9.90;99.90
41904;DHT22;27586;51.124;4.182;2024-01-30T04:30:15;9.90;99.90
41904;DHT22;27586;51.124;4.182;2024-01-30T04:32:41;10.00;99.90
41904;DHT22;27586;51.124;4.182;2024-01-30T04:35:07;9.90;99.90
41904;DHT22;27586;51.124;4.182;2024-01-30T04:37:32;9.90;99.90
41904;DHT22;27586;51.124;4.182;2024-01-30T04:39:58;9.90;99.90
41904;DHT22;27586;51.124;4.182;2024-01-30T04:42:24;9.90;99.90
41904;DHT22;27586;51.124;4.182;2024-01-30T04:44:50;10.00;99.90
41904;DHT22;27586;51.124;4.182;2024-01-30T04:47:15;9.90;99.90
41904;DHT22;27586;51.124;4.182;2024-01-30T04:49:41;9.90;99.90
41904;DHT22;27586;51.124;4.182;2024-01-30T04:52:08;10.00;99.90
41904;DHT22;27586;51.124;4.182;2024-01-30T04:54:34;10.00;99.90
41904;DHT22;27586;51.124;4.182;2024-01-30T04:57:00;10.10;99.90
41904;DHT22;27586;51.124;4.182;2024-01-30T04:59:26;10.10;99.90
41904;DHT22;27586;51.124;4.182;2024-01-30T05:01:52;10.10;99.90
41904;DHT22;27586;51.124;4.182;2024-01-30T05:04:18;10.10;99.90
41904;DHT22;27586;51.124;4.182;2024-01-30T05:06:43;10.10;99.90
41904;DHT22;27586;51.124;4.182;2024-01-30T05:09:09;10.10;99.90
41904;DHT22;27586;51.124;4.182;2024-01-30T05:11:38;10.00;99.90
41904;DHT22;27586;51.124;4.182;2024-01-30T05:14:05;10.10;99.90
41904;DHT22;27586;51.124;4.182;2024-01-30T05:16:31;10.20;99.90
41904;DHT22;27586;51.124;4.182;2024-01-30T05:18:57;10.10;99.90
41904;DHT22;27586;51.124;4.182;2024-01-30T05:21:23;10.10;99.90
41904;DHT22;27586;51.124;4.182;2024-01-30T05:23:49;10.10;99.90
41904;DHT22;27586;51.124;4.182;2024-01-30T05:26:15;10.20;99.90
41904;DHT22;27586;51.124;4.182;2024-01-30T05:28:40;10.20;99.90
41904;DHT22;27586;51.124;4.182;2024-01-30T05:31:06;10.10;99.90
41904;DHT22;27586;51.124;4.182;2024-01-30T05:33:32;10.20;99.90
41904;DHT22;27586;51.124;4.182;2024-01-30T05:36:00;10.20;99.90
41904;DHT22;27586;51.124;4.182;2024-01-30T05:38:26;10.20;99.90
41904;DHT22;27586;51.124;4.182;2024-01-30T05:40:52;10.10;99.90
41904;DHT22;27586;51.124;4.182;2024-01-30T05:43:17;10.10;99.90
41904;DHT22;27586;51.124;4.182;2024-01-30T05:45:43;10.20;99.90
41904;DHT22;27586;51.124;4.182;2024-01-30T05:48:09;10.10;99.90
41904;DHT22;27586;51.124;4.182;2024-01-30T05:50:37;10.20;99.90
41904;DHT22;27586;51.124;4.182;2024-01-30T05:53:03;10.10;99.90
41904;DHT22;27586;51.124;4.182;2024-01-30T05:55:32;10.20;99.90
41904;DHT22;27586;51.124;4.182;2024-01-30T05:57:58;10.20;99.90
41904;DHT22;27586;51.124;4.182;2024-01-30T06:00:23;10.30;99.90
41904;DHT22;27586;51.124;4.182;2024-01-30T06:02:49;10.40;99.90
41904;DHT22;27586;51.124;4.182;2024-01-30T06:05:15;10.40;99.90
41904;DHT22;27586;51.124;4.182;2024-01-30T06:07:40;10.20;99.90
41904;DHT22;27586;51.124;4.182;2024-01-30T06:10:06;10.20;99.90
41904;DHT22;27586;51.124;4.182;2024-01-30T06:12:34;10.30;99.90
41904;DHT22;27586;51.124;4.182;2024-01-30T06:15:03;10.30;99.90
41904;DHT22;27586;51.124;4.182;2024-01-30T06:17:29;10.40;99.90
41904;DHT22;27586;51.124;4.182;2024-01-30T06:19:54;10.40;99.90
41904;DHT22;27586;51.124;4.182;2024-01-30T06:22:23;10.40;99.90
41904;DHT22;27586;51.124;4.182;2024-01-30T06:24:49;10.30;99.90
41904;DHT22;27586;51.124;4.182;2024-01-30T06:27:15;10.20;99.90
41904;DHT22;27586;51.124;4.182;2024-01-30T06:29:42;10.30;99.90
41904;DHT22;27586;51.124;4.182;2024-01-30T06:32:08;10.30;99.90
41904;DHT22;27586;51.124;4.182;2024-01-30T06:34:34;10.30;99.90
41904;DHT22;27586;51.124;4.182;2024-01-30T06:37:04;10.30;99.90
41904;DHT22;27586;51.124;4.182;2024-01-30T06:39:29;10.30;99.90
41904;DHT22;27586;51.124;4.182;2024-01-30T06:41:55;10.40;99.90
41904;DHT22;27586;51.124;4.182;2024-01-30T06:44:21;10.40;99.90
41904;DHT22;27586;51.124;4.182;2024-01-30T06:46:46;10.40;99.90
41904;DHT22;27586;51.124;4.182;2024-01-30T06:49:12;10.40;99.90
41904;DHT22;27586;51.124;4.182;2024-01-30T06:51:38;10.40;99.90
41904;DHT22;27586;51.124;4.182;2024-01-30T06:54:03;10.40;99.90
41904;DHT22;27586;51.124;4.182;2024-01-30T06:56:29;10.30;99.90
41904;DHT22;27586;51.124;4.182;2024-01-30T06:58:55;10.30;99.90
41904;DHT22;27586;51.124;4.182;2024-01-30T07:01:21;10.40;99.90
41904;DHT22;27586;51.124;4.182;2024-01-30T07:03:52;10.40;99.90
41904;DHT22;27586;51.124;4.182;2024-01-30T07:06:18;10.40;99.90
41904;DHT22;27586;51.124;4.182;2024-01-30T07:08:43;10.50;99.90
41904;DHT22;27586;51.124;4.182;2024-01-30T07:11:09;10.40;99.90
41904;DHT22;27586;51.124;4.182;2024-01-30T07:13:35;10.50;99.90
41904;DHT22;27586;51.124;4.182;2024-01-30T07:16:01;10.50;99.90
41904;DHT22;27586;51.124;4.182;2024-01-30T07:18:26;10.50;99.90
41904;DHT22;27586;51.124;4.182;2024-01-30T07:20:52;10.60;99.90
41904;DHT22;27586;51.124;4.182;2024-01-30T07:23:18;10.50;99.90
41904;DHT22;27586;51.124;4.182;2024-01-30T07:25:46;10.50;99.90
41904;DHT22;27586;51.124;4.182;2024-01-30T07:28:15;10.50;99.90
41904;DHT22;27586;51.124;4.182;2024-01-30T07:30:44;10.50;99.90
41904;DHT22;27586;51.124;4.182;2024-01-30T07:33:09;10.50;99.90
41904;DHT22;27586;51.124;4.182;2024-01-30T07:35:36;10.50;99.90
41904;DHT22;27586;51.124;4.182;2024-01-30T07:38:02;10.50;99.90
41904;DHT22;27586;51.124;4.182;2024-01-30T07:40:28;10.50;99.90
41904;DHT22;27586;51.124;4.182;2024-01-30T07:42:58;10.60;99.90
41904;DHT22;27586;51.124;4.182;2024-01-30T07:45:24;10.50;99.90
41904;DHT22;27586;51.124;4.182;2024-01-30T07:47:51;10.60;99.90
41904;DHT22;27586;51.124;4.182;2024-01-30T07:50:17;10.60;99.90
41904;DHT22;27586;51.124;4.182;2024-01-30T07:52:43;10.60;99.90
41904;DHT22;27586;51.124;4.182;2024-01-30T07:55:09;10.60;99.90
41904;DHT22;27586;51.124;4.182;2024-01-30T07:57:34;10.60;99.90
41904;DHT22;27586;51.124;4.182;2024-01-30T08:00:01;10.70;99.90
41904;DHT22;27586;51.124;4.182;2024-01-30T08:02:28;10.70;99.90
41904;DHT22;27586;51.124;4.182;2024-01-30T08:04:54;10.70;99.90
41904;DHT22;27586;51.124;4.182;2024-01-30T08:07:19;10.70;99.90
41904;DHT22;27586;51.124;4.182;2024-01-30T08:09:47;10.80;99.90
41904;DHT22;27586;51.124;4.182;2024-01-30T08:12:13;10.90;99.90
41904;DHT22;27586;51.124;4.182;2024-01-30T08:14:39;10.90;99.90
41904;DHT22;27586;51.124;4.182;2024-01-30T08:17:06;10.80;99.90
41904;DHT22;27586;51.124;4.182;2024-01-30T08:19:33;10.90;99.90
41904;DHT22;27586;51.124;4.182;2024-01-30T08:21:58;10.90;99.90
41904;DHT22;27586;51.124;4.182;2024-01-30T08:24:24;10.90;99.90
41904;DHT22;27586;51.124;4.182;2024-01-30T08:26:50;11.00;99.90
41904;DHT22;27586;51.124;4.182;2024-01-30T08:29:16;11.00;99.90
41904;DHT22;27586;51.124;4.182;2024-01-30T08:31:42;11.00;99.90
41904;DHT22;27586;51.124;4.182;2024-01-30T08:34:07;11.00;99.90
41904;DHT22;27586;51.124;4.182;2024-01-30T08:36:33;11.00;99.90
41904;DHT22;27586;51.124;4.182;2024-01-30T08:38:59;11.00;99.90
41904;DHT22;27586;51.124;4.182;2024-01-30T08:41:24;10.90;99.90
41904;DHT22;27586;51.124;4.182;2024-01-30T08:43:51;10.90;99.90
41904;DHT22;27586;51.124;4.182;2024-01-30T08:46:19;10.90;99.90
41904;DHT22;27586;51.124;4.182;2024-01-30T08:48:46;11.00;99.90
41904;DHT22;27586;51.124;4.182;2024-01-30T08:51:13;10.90;99.90
41904;DHT22;27586;51.124;4.182;2024-01-30T08:53:39;11.00;99.90
41904;DHT22;27586;51.124;4.182;2024-01-30T08:56:06;11.10;99.90
41904;DHT22;27586;51.124;4.182;2024-01-30T08:58:32;11.00;99.90
41904;DHT22;27586;51.124;4.182;2024-01-30T09:00:58;11.10;99.90
41904;DHT22;27586;51.124;4.182;2024-01-30T09:03:24;11.10;99.90
41904;DHT22;27586;51.124;4.182;2024-01-30T09:05:57;11.00;99.90
41904;DHT22;27586;51.124;4.182;2024-01-30T09:08:25;11.10;99.90
41904;DHT22;27586;51.124;4.182;2024-01-30T09:10:51;11.20;99.90
41904;DHT22;27586;51.124;4.182;2024-01-30T09:13:16;11.20;99.90
41904;DHT22;27586;51.124;4.182;2024-01-30T09:15:42;11.20;99.90
41904;DHT22;27586;51.124;4.182;2024-01-30T09:18:09;11.40;99.90
41904;DHT22;27586;51.124;4.182;2024-01-30T09:20:34;11.40;99.90
41904;DHT22;27586;51.124;4.182;2024-01-30T09:23:00;11.30;99.90
41904;DHT22;27586;51.124;4.182;2024-01-30T09:25:29;11.30;99.90
41904;DHT22;27586;51.124;4.182;2024-01-30T09:27:55;11.40;99.90
41904;DHT22;27586;51.124;4.182;2024-01-30T09:30:21;11.40;99.90
41904;DHT22;27586;51.124;4.182;2024-01-30T09:32:46;11.50;99.90
41904;DHT22;27586;51.124;4.182;2024-01-30T09:35:12;11.50;99.90
41904;DHT22;27586;51.124;4.182;2024-01-30T09:37:38;11.50;99.90
41904;DHT22;27586;51.124;4.182;2024-01-30T09:40:04;11.50;99.90
41904;DHT22;27586;51.124;4.182;2024-01-30T09:42:34;11.50;99.90
41904;DHT22;27586;51.124;4.182;2024-01-30T09:45:04;11.70;99.90
41904;DHT22;27586;51.124;4.182;2024-01-30T09:47:40;11.70;99.90
41904;DHT22;27586;51.124;4.182;2024-01-30T09:50:07;11.70;99.90
41904;DHT22;27586;51.124;4.182;2024-01-30T09:52:33;11.80;99.90
41904;DHT22;27586;51.124;4.182;2024-01-30T09:54:59;11.80;99.90
41904;DHT22;27586;51.124;4.182;2024-01-30T09:57:25;11.90;99.90
41904;DHT22;27586;51.124;4.182;2024-01-30T09:59:51;11.80;99.90
41904;DHT22;27586;51.124;4.182;2024-01-30T10:02:19;11.70;99.90
41904;DHT22;27586;51.124;4.182;2024-01-30T10:04:48;11.60;99.90
41904;DHT22;27586;51.124;4.182;2024-01-30T10:07:15;11.50;99.90
41904;DHT22;27586;51.124;4.182;2024-01-30T10:09:41;11.60;99.90
41904;DHT22;27586;51.124;4.182;2024-01-30T10:12:08;11.50;99.90
41904;DHT22;27586;51.124;4.182;2024-01-30T10:14:37;11.50;99.90
41904;DHT22;27586;51.124;4.182;2024-01-30T10:17:03;11.50;99.90
41904;DHT22;27586;51.124;4.182;2024-01-30T10:19:29;11.50;99.90
41904;DHT22;27586;51.124;4.182;2024-01-30T10:21:55;11.50;99.90
41904;DHT22;27586;51.124;4.182;2024-01-30T10:24:24;11.70;99.90
41904;DHT22;27586;51.124;4.182;2024-01-30T10:26:50;11.50;99.90
41904;DHT22;27586;51.124;4.182;2024-01-30T10:29:17;11.50;99.90
41904;DHT22;27586;51.124;4.182;2024-01-30T10:31:42;11.30;99.90
41904;DHT22;27586;51.124;4.182;2024-01-30T10:34:08;11.40;99.90
41904;DHT22;27586;51.124;4.182;2024-01-30T10:36:40;11.40;99.90
41904;DHT22;27586;51.124;4.182;2024-01-30T10:39:09;11.20;99.90
41904;DHT22;27586;51.124;4.182;2024-01-30T10:41:43;11.30;99.90
41904;DHT22;27586;51.124;4.182;2024-01-30T10:44:10;11.20;99.90
41904;DHT22;27586;51.124;4.182;2024-01-30T10:46:38;11.20;99.90
41904;DHT22;27586;51.124;4.182;2024-01-30T10:49:05;11.20;99.90
41904;DHT22;27586;51.124;4.182;2024-01-30T10:51:32;11.30;99.90
41904;DHT22;27586;51.124;4.182;2024-01-30T10:53:58;11.30;99.90
41904;DHT22;27586;51.124;4.182;2024-01-30T10:56:24;11.30;99.90
41904;DHT22;27586;51.124;4.182;2024-01-30T10:58:54;11.30;99.90
41904;DHT22;27586;51.124;4.182;2024-01-30T11:01:21;11.50;99.90
41904;DHT22;27586;51.124;4.182;2024-01-30T11:03:54;11.50;99.90
41904;DHT22;27586;51.124;4.182;2024-01-30T11:06:24;11.60;99.90
41904;DHT22;27586;51.124;4.182;2024-01-30T11:09:03;11.60;99.90
41904;DHT22;27586;51.124;4.182;2024-01-30T11:11:46;11.60;99.90
41904;DHT22;27586;51.124;4.182;2024-01-30T11:14:13;11.80;99.90
41904;DHT22;27586;51.124;4.182;2024-01-30T11:16:40;12.00;99.90
41904;DHT22;27586;51.124;4.182;2024-01-30T11:19:10;12.10;99.90
41904;DHT22;27586;51.124;4.182;2024-01-30T11:21:43;12.00;99.90
41904;DHT22;27586;51.124;4.182;2024-01-30T11:24:09;12.00;99.90
41904;DHT22;27586;51.124;4.182;2024-01-30T11:26:35;12.00;99.90
41904;DHT22;27586;51.124;4.182;2024-01-30T11:29:06;12.00;99.90
41904;DHT22;27586;51.124;4.182;2024-01-30T11:31:35;11.90;99.90
41904;DHT22;27586;51.124;4.182;2024-01-30T11:34:05;11.80;99.90
41904;DHT22;27586;51.124;4.182;2024-01-30T11:36:32;11.90;99.90
41904;DHT22;27586;51.124;4.182;2024-01-30T11:39:00;11.90;99.90
41904;DHT22;27586;51.124;4.182;2024-01-30T11:41:26;12.00;99.90
41904;DHT22;27586;51.124;4.182;2024-01-30T11:43:53;12.00;99.90
41904;DHT22;27586;51.124;4.182;2024-01-30T11:46:19;12.00;99.90
41904;DHT22;27586;51.124;4.182;2024-01-30T11:48:45;12.10;99.90
41904;DHT22;27586;51.124;4.182;2024-01-30T11:51:13;12.10;99.90
41904;DHT22;27586;51.124;4.182;2024-01-30T11:53:38;12.00;99.90
41904;DHT22;27586;51.124;4.182;2024-01-30T11:56:06;12.00;99.90
41904;DHT22;27586;51.124;4.182;2024-01-30T11:58:32;11.80;99.90
41904;DHT22;27586;51.124;4.182;2024-01-30T12:00:58;11.80;99.90
41904;DHT22;27586;51.124;4.182;2024-01-30T12:03:25;11.80;99.90
41904;DHT22;27586;51.124;4.182;2024-01-30T12:05:57;11.90;99.90
41904;DHT22;27586;51.124;4.182;2024-01-30T12:08:23;11.90;99.90
41904;DHT22;27586;51.124;4.182;2024-01-30T12:10:58;11.80;99.90
41904;DHT22;27586;51.124;4.182;2024-01-30T12:13:26;11.80;99.90
41904;DHT22;27586;51.124;4.182;2024-01-30T12:15:52;11.80;99.90
41904;DHT22;27586;51.124;4.182;2024-01-30T12:18:21;11.80;99.90
41904;DHT22;27586;51.124;4.182;2024-01-30T12:20:59;11.80;99.90
41904;DHT22;27586;51.124;4.182;2024-01-30T12:23:29;11.70;99.90
41904;DHT22;27586;51.124;4.182;2024-01-30T12:25:55;11.70;99.90
41904;DHT22;27586;51.124;4.182;2024-01-30T12:28:21;11.70;99.90
41904;DHT22;27586;51.124;4.182;2024-01-30T12:30:46;11.60;99.90
41904;DHT22;27586;51.124;4.182;2024-01-30T12:33:18;11.60;99.90
41904;DHT22;27586;51.124;4.182;2024-01-30T12:35:48;11.50;99.90
41904;DHT22;27586;51.124;4.182;2024-01-30T12:38:14;11.30;99.90
41904;DHT22;27586;51.124;4.182;2024-01-30T12:40:40;11.40;99.90
41904;DHT22;27586;51.124;4.182;2024-01-30T12:43:08;11.40;99.90
41904;DHT22;27586;51.124;4.182;2024-01-30T12:45:35;11.10;99.90
41904;DHT22;27586;51.124;4.182;2024-01-30T12:48:01;11.10;99.90
41904;DHT22;27586;51.124;4.182;2024-01-30T12:50:26;11.10;99.90
41904;DHT22;27586;51.124;4.182;2024-01-30T12:52:52;11.10;99.90
41904;DHT22;27586;51.124;4.182;2024-01-30T12:55:18;10.90;99.90
41904;DHT22;27586;51.124;4.182;2024-01-30T12:57:44;11.00;99.90
41904;DHT22;27586;51.124;4.182;2024-01-30T13:00:16;11.10;99.90
41904;DHT22;27586;51.124;4.182;2024-01-30T13:02:42;11.10;99.90
41904;DHT22;27586;51.124;4.182;2024-01-30T13:05:10;11.20;99.90
41904;DHT22;27586;51.124;4.182;2024-01-30T13:07:36;11.10;99.90
41904;DHT22;27586;51.124;4.182;2024-01-30T13:10:02;11.20;99.90
41904;DHT22;27586;51.124;4.182;2024-01-30T13:12:32;11.20;99.90
41904;DHT22;27586;51.124;4.182;2024-01-30T13:14:59;11.00;99.90
41904;DHT22;27586;51.124;4.182;2024-01-30T13:17:26;10.90;99.90
41904;DHT22;27586;51.124;4.182;2024-01-30T13:19:52;10.80;99.90
41904;DHT22;27586;51.124;4.182;2024-01-30T13:22:19;10.90;99.90
41904;DHT22;27586;51.124;4.182;2024-01-30T13:24:47;10.70;99.90
41904;DHT22;27586;51.124;4.182;2024-01-30T13:27:13;10.70;99.90
41904;DHT22;27586;51.124;4.182;2024-01-30T13:29:39;10.80;99.90
41904;DHT22;27586;51.124;4.182;2024-01-30T13:32:05;10.80;99.90
41904;DHT22;27586;51.124;4.182;2024-01-30T13:34:31;10.80;99.90
41904;DHT22;27586;51.124;4.182;2024-01-30T13:36:56;10.80;99.90
41904;DHT22;27586;51.124;4.182;2024-01-30T13:39:22;10.90;99.90
41904;DHT22;27586;51.124;4.182;2024-01-30T13:41:49;10.90;99.90
41904;DHT22;27586;51.124;4.182;2024-01-30T13:44:15;10.80;99.90
41904;DHT22;27586;51.124;4.182;2024-01-30T13:46:43;10.70;99.90
41904;DHT22;27586;51.124;4.182;2024-01-30T13:49:08;10.60;99.90
41904;DHT22;27586;51.124;4.182;2024-01-30T13:51:34;10.80;99.90
41904;DHT22;27586;51.124;4.182;2024-01-30T13:54:00;10.70;99.90
41904;DHT22;27586;51.124;4.182;2024-01-30T13:56:26;10.70;99.90
41904;DHT22;27586;51.124;4.182;2024-01-30T13:58:52;10.70;99.90
41904;DHT22;27586;51.124;4.182;2024-01-30T14:01:18;10.70;99.90
41904;DHT22;27586;51.124;4.182;2024-01-30T14:03:44;10.60;99.90
41904;DHT22;27586;51.124;4.182;2024-01-30T14:06:11;10.50;99.90
41904;DHT22;27586;51.124;4.182;2024-01-30T14:08:36;10.50;99.90
41904;DHT22;27586;51.124;4.182;2024-01-30T14:11:02;10.50;99.90
41904;DHT22;27586;51.124;4.182;2024-01-30T14:13:29;10.50;99.90
41904;DHT22;27586;51.124;4.182;2024-01-30T14:15:56;10.50;99.90
41904;DHT22;27586;51.124;4.182;2024-01-30T14:18:22;10.40;99.90
41904;DHT22;27586;51.124;4.182;2024-01-30T14:20:47;10.40;99.90
41904;DHT22;27586;51.124;4.182;2024-01-30T14:23:13;10.50;99.90
41904;DHT22;27586;51.124;4.182;2024-01-30T14:25:39;10.50;99.90
41904;DHT22;27586;51.124;4.182;2024-01-30T14:28:05;10.50;99.90
41904;DHT22;27586;51.124;4.182;2024-01-30T14:30:31;10.70;99.90
41904;DHT22;27586;51.124;4.182;2024-01-30T14:32:57;10.60;99.90
41904;DHT22;27586;51.124;4.182;2024-01-30T14:35:22;10.70;99.90
41904;DHT22;27586;51.124;4.182;2024-01-30T14:37:48;10.60;99.90
41904;DHT22;27586;51.124;4.182;2024-01-30T14:40:14;10.50;99.90
41904;DHT22;27586;51.124;4.182;2024-01-30T14:42:40;10.50;99.90
41904;DHT22;27586;51.124;4.182;2024-01-30T14:45:06;10.50;99.90
41904;DHT22;27586;51.124;4.182;2024-01-30T14:47:32;10.50;99.90
41904;DHT22;27586;51.124;4.182;2024-01-30T14:49:58;10.40;99.90
41904;DHT22;27586;51.124;4.182;2024-01-30T14:52:24;10.20;99.90
41904;DHT22;27586;51.124;4.182;2024-01-30T14:54:50;10.30;99.90
41904;DHT22;27586;51.124;4.182;2024-01-30T14:57:16;10.40;99.90
41904;DHT22;27586;51.124;4.182;2024-01-30T14:59:42;10.40;99.90
41904;DHT22;27586;51.124;4.182;2024-01-30T15:02:07;10.30;99.90
41904;DHT22;27586;51.124;4.182;2024-01-30T15:04:33;10.30;99.90
41904;DHT22;27586;51.124;4.182;2024-01-30T15:07:02;10.20;99.90
41904;DHT22;27586;51.124;4.182;2024-01-30T15:09:31;10.10;99.90
41904;DHT22;27586;51.124;4.182;2024-01-30T15:11:57;10.20;99.90
41904;DHT22;27586;51.124;4.182;2024-01-30T15:14:23;10.10;99.90
41904;DHT22;27586;51.124;4.182;2024-01-30T15:16:49;10.10;99.90
41904;DHT22;27586;51.124;4.182;2024-01-30T15:19:15;10.00;99.90
41904;DHT22;27586;51.124;4.182;2024-01-30T15:21:41;10.10;99.90
41904;DHT22;27586;51.124;4.182;2024-01-30T15:24:07;10.20;99.90
41904;DHT22;27586;51.124;4.182;2024-01-30T15:26:32;10.20;99.90
41904;DHT22;27586;51.124;4.182;2024-01-30T15:28:58;10.20;99.90
41904;DHT22;27586;51.124;4.182;2024-01-30T15:31:24;10.00;99.90